Terminal Aerodrome Forecast
Issued by NWS

Home | Current Version | Previous Version | Text Only | Print | Product List | Glossary On
Versions: 1 2 3 4 5 6 7 8 9 10 11 12
619
FTUS45 KRIW 191122
TAFBPI
TAF
KBPI 191122Z 1912/2012 VRB05KT P6SM SCT250
     FM192000 19007KT P6SM FEW120 BKN250
     FM200400 22012G20KT P6SM SCT250=

USA.gov is the U.S. government's official web portal to all federal, state and local government web resources and services.